createdAt,value
2018-04-19T00:02:18.421Z,21.40
2018-04-19T00:04:45.951Z,20.23
2018-04-19T00:07:13.495Z,20.70
2018-04-19T00:09:41.072Z,23.33
2018-04-19T00:12:08.538Z,21.40
2018-04-19T00:14:36.016Z,21.80
2018-04-19T00:17:03.492Z,21.67
2018-04-19T00:19:30.976Z,22.20
2018-04-19T00:21:58.477Z,20.27
2018-04-19T00:24:25.947Z,19.70
2018-04-19T00:26:53.472Z,21.87
2018-04-19T00:29:20.939Z,20.77
2018-04-19T00:31:48.399Z,19.57
2018-04-19T00:34:15.890Z,18.37
2018-04-19T00:36:43.379Z,20.37
2018-04-19T00:39:10.906Z,21.20
2018-04-19T00:41:38.412Z,21.20
2018-04-19T00:44:05.872Z,20.20
2018-04-19T00:46:33.383Z,19.00
2018-04-19T00:49:00.914Z,17.90
2018-04-19T00:51:28.424Z,19.40
2018-04-19T00:53:55.894Z,19.00
2018-04-19T00:56:23.382Z,20.00
2018-04-19T00:58:50.935Z,19.00
2018-04-19T01:01:18.459Z,20.97
2018-04-19T01:03:45.956Z,18.40
2018-04-19T01:06:13.450Z,18.60
2018-04-19T01:08:40.957Z,19.20
2018-04-19T01:11:08.543Z,19.30
2018-04-19T01:13:36.036Z,19.67
2018-04-19T01:16:03.497Z,19.07
2018-04-19T01:18:30.985Z,19.20
2018-04-19T01:20:58.495Z,18.77
2018-04-19T01:23:25.959Z,19.57
2018-04-19T01:25:53.423Z,19.73
2018-04-19T01:28:20.917Z,19.50
2018-04-19T01:30:48.434Z,20.93
2018-04-19T01:33:15.908Z,20.97
2018-04-19T01:35:55.476Z,18.87
2018-04-19T01:38:22.960Z,20.30
2018-04-19T01:40:50.428Z,22.10
2018-04-19T01:43:17.918Z,23.13
2018-04-19T01:45:45.435Z,20.97
2018-04-19T01:48:12.924Z,19.50
2018-04-19T01:50:40.480Z,20.13
2018-04-19T01:53:08.020Z,19.33
2018-04-19T01:55:35.480Z,19.60
2018-04-19T01:58:03.004Z,20.77
2018-04-19T02:00:30.584Z,19.43
2018-04-19T02:02:58.083Z,20.30
2018-04-19T02:05:25.605Z,20.27
2018-04-19T02:07:53.171Z,23.47
2018-04-19T02:10:20.635Z,23.77
2018-04-19T02:12:48.092Z,21.20
2018-04-19T02:15:15.612Z,21.90
2018-04-19T02:17:43.089Z,22.77
2018-04-19T02:20:10.580Z,22.10
2018-04-19T02:22:38.089Z,21.50
2018-04-19T02:25:05.552Z,23.57
2018-04-19T02:27:33.091Z,22.37
2018-04-19T02:30:00.549Z,23.90
2018-04-19T02:32:28.050Z,23.13
2018-04-19T02:34:55.497Z,23.10
2018-04-19T02:37:23.029Z,23.53
2018-04-19T02:39:50.544Z,22.00
2018-04-19T02:42:18.031Z,21.60
2018-04-19T02:44:45.533Z,22.60
2018-04-19T02:47:13.011Z,23.93
2018-04-19T02:49:40.767Z,22.40
2018-04-19T02:52:08.268Z,21.63
2018-04-19T02:54:35.761Z,22.63
2018-04-19T02:57:03.248Z,22.37
2018-04-19T02:59:30.737Z,24.93
2018-04-19T03:01:58.267Z,21.73
2018-04-19T03:04:25.835Z,24.20
2018-04-19T03:06:53.348Z,23.37
2018-04-19T03:09:20.893Z,23.63
2018-04-19T03:11:48.403Z,26.50
2018-04-19T03:14:15.858Z,25.30
2018-04-19T03:16:43.341Z,24.50
2018-04-19T03:19:10.871Z,22.90
2018-04-19T03:21:38.347Z,23.60
2018-04-19T03:24:05.839Z,23.70
2018-04-19T03:26:33.305Z,24.70
2018-04-19T03:29:00.918Z,25.87
2018-04-19T03:31:28.367Z,25.70
2018-04-19T03:33:55.857Z,26.77
2018-04-19T03:36:23.420Z,27.70
2018-04-19T03:38:51.799Z,26.97
2018-04-19T03:41:19.363Z,26.60
2018-04-19T03:43:46.854Z,28.13
2018-04-19T03:46:14.371Z,25.37
2018-04-19T03:48:41.900Z,24.83
2018-04-19T03:51:09.372Z,25.30
2018-04-19T03:53:36.843Z,22.90
2018-04-19T03:56:04.324Z,24.37
2018-04-19T03:58:31.817Z,26.67
2018-04-19T04:00:59.309Z,25.00
2018-04-19T04:03:26.814Z,27.07
2018-04-19T04:05:54.305Z,27.07
2018-04-19T04:08:21.795Z,27.33
2018-04-19T04:10:49.345Z,24.53
2018-04-19T04:13:16.811Z,27.07
2018-04-19T04:15:44.313Z,27.77
2018-04-19T04:18:23.790Z,26.63
2018-04-19T04:21:03.229Z,27.10
2018-04-19T04:23:46.618Z,26.23
2018-04-19T04:26:14.246Z,25.10
2018-04-19T04:28:41.707Z,28.73
2018-04-19T04:31:09.272Z,27.87
2018-04-19T04:33:36.729Z,26.20
2018-04-19T04:36:04.186Z,25.83
2018-04-19T04:38:31.740Z,24.87
2018-04-19T04:40:59.223Z,24.83
2018-04-19T04:43:26.801Z,23.03
2018-04-19T04:45:54.321Z,23.53
2018-04-19T04:48:21.820Z,24.87
2018-04-19T04:50:49.289Z,24.63
2018-04-19T04:53:16.820Z,25.63
2018-04-19T04:55:44.352Z,27.60
2018-04-19T04:58:12.319Z,25.73
2018-04-19T05:00:39.840Z,24.40
2018-04-19T05:03:07.350Z,25.83
2018-04-19T05:05:34.800Z,26.93
2018-04-19T05:08:02.292Z,26.83
2018-04-19T05:10:29.812Z,24.93
2018-04-19T05:12:57.305Z,24.40
2018-04-19T05:15:24.797Z,26.47
2018-04-19T05:17:52.270Z,24.80
2018-04-19T05:20:19.793Z,26.33
2018-04-19T05:22:47.320Z,26.07
2018-04-19T05:25:14.820Z,27.40
2018-04-19T05:27:42.356Z,25.47
2018-04-19T05:30:09.915Z,23.93
2018-04-19T05:32:37.426Z,23.27
2018-04-19T05:35:04.883Z,24.90
2018-04-19T05:37:32.440Z,23.70
2018-04-19T05:40:00.008Z,24.30
2018-04-19T05:42:27.480Z,30.00
2018-04-19T05:44:55.000Z,23.00
2018-04-19T05:47:22.455Z,23.90
2018-04-19T05:49:49.915Z,24.60
2018-04-19T05:52:17.440Z,23.83
2018-04-19T05:54:44.954Z,24.60
2018-04-19T05:57:12.458Z,29.00
2018-04-19T05:59:39.968Z,25.17
2018-04-19T06:02:07.461Z,25.37
2018-04-19T06:04:35.033Z,21.30
2018-04-19T06:07:02.596Z,23.50
2018-04-19T06:09:30.064Z,23.10
2018-04-19T06:11:57.576Z,21.50
2018-04-19T06:14:25.042Z,22.23
2018-04-19T06:16:52.496Z,20.80
2018-04-19T06:19:19.996Z,22.90
2018-04-19T06:21:47.456Z,19.63
2018-04-19T06:24:14.945Z,26.67
2018-04-19T06:26:42.530Z,31.50
2018-04-19T06:29:10.049Z,23.20
2018-04-19T06:31:37.507Z,21.70
2018-04-19T06:34:04.998Z,19.10
2018-04-19T06:36:32.531Z,21.73
2018-04-19T06:39:00.121Z,16.03
2018-04-19T06:41:27.580Z,18.53
2018-04-19T06:43:55.107Z,17.87
2018-04-19T06:46:22.611Z,19.33
2018-04-19T06:48:50.063Z,19.90
2018-04-19T06:51:17.667Z,19.77
2018-04-19T06:53:45.166Z,16.70
2018-04-19T06:56:12.650Z,16.43
2018-04-19T06:58:40.141Z,16.10
2018-04-19T07:01:07.727Z,18.10
2018-04-19T07:03:35.329Z,17.20
2018-04-19T07:06:02.791Z,16.60
2018-04-19T07:08:30.345Z,21.20
2018-04-19T07:10:57.881Z,17.60
2018-04-19T07:13:25.416Z,17.57
2018-04-19T07:15:52.937Z,18.20
2018-04-19T07:18:20.485Z,20.30
2018-04-19T07:20:48.041Z,15.40
2018-04-19T07:23:15.508Z,14.63
2018-04-19T07:25:43.045Z,20.20
2018-04-19T07:28:10.601Z,14.10
2018-04-19T07:30:38.132Z,14.90
2018-04-19T07:33:05.684Z,14.33
2018-04-19T07:35:33.283Z,15.33
2018-04-19T07:38:00.804Z,15.17
2018-04-19T07:40:28.332Z,16.37
2018-04-19T07:42:55.799Z,16.67
2018-04-19T07:45:23.243Z,18.23
2018-04-19T07:47:50.743Z,15.50
2018-04-19T07:50:18.219Z,14.30
2018-04-19T07:52:45.707Z,14.70
2018-04-19T07:55:13.210Z,14.70
2018-04-19T07:57:40.717Z,15.37
2018-04-19T08:00:08.270Z,12.73
2018-04-19T08:02:35.785Z,12.67
2018-04-19T08:05:03.286Z,12.77
2018-04-19T08:07:30.820Z,12.67
2018-04-19T08:09:58.299Z,12.47
2018-04-19T08:12:25.796Z,12.13
2018-04-19T08:14:53.282Z,11.10
2018-04-19T08:17:20.852Z,11.57
2018-04-19T08:19:48.427Z,10.60
2018-04-19T08:22:16.083Z,10.80
2018-04-19T08:24:43.646Z,9.43
2018-04-19T08:27:11.134Z,11.37
2018-04-19T08:29:38.686Z,11.60
2018-04-19T08:32:06.209Z,11.17
2018-04-19T08:34:33.780Z,12.37
2018-04-19T08:37:01.260Z,9.50
2018-04-19T08:39:28.711Z,9.87
2018-04-19T08:41:56.281Z,9.57
2018-04-19T08:44:23.724Z,9.83
2018-04-19T08:46:51.227Z,10.47
2018-04-19T08:49:18.720Z,11.60
2018-04-19T08:51:46.169Z,9.83
2018-04-19T08:54:13.631Z,9.70
2018-04-19T08:56:41.082Z,8.70
2018-04-19T08:59:08.635Z,7.90
2018-04-19T09:01:36.226Z,7.70
2018-04-19T09:04:03.800Z,8.60
2018-04-19T09:06:31.422Z,7.90
2018-04-19T09:08:58.915Z,8.37
2018-04-19T09:11:26.483Z,8.27
2018-04-19T09:13:53.959Z,8.20
2018-04-19T09:16:21.442Z,8.50
2018-04-19T09:18:48.918Z,7.77
2018-04-19T09:21:16.493Z,10.60
2018-04-19T09:23:43.992Z,8.03
2018-04-19T09:26:11.471Z,9.43
2018-04-19T09:28:38.973Z,9.93
2018-04-19T09:31:06.463Z,9.20
2018-04-19T09:33:33.944Z,7.80
2018-04-19T09:36:01.424Z,8.00
2018-04-19T09:38:28.903Z,9.20
2018-04-19T09:40:56.411Z,8.77
2018-04-19T09:43:23.901Z,9.23
2018-04-19T09:45:51.427Z,8.20
2018-04-19T09:48:18.880Z,6.90
2018-04-19T09:50:46.412Z,7.70
2018-04-19T09:53:13.890Z,8.80
2018-04-19T09:55:41.376Z,8.13
2018-04-19T09:58:08.970Z,9.37
2018-04-19T10:00:42.173Z,7.93
2018-04-19T10:03:15.104Z,8.10
2018-04-19T10:05:47.366Z,8.40
2018-04-19T10:08:14.882Z,8.17
2018-04-19T10:10:42.366Z,7.67
2018-04-19T10:13:09.944Z,9.03
2018-04-19T10:15:37.399Z,8.13
2018-04-19T10:18:04.847Z,7.40
2018-04-19T10:20:32.332Z,9.40
2018-04-19T10:22:59.817Z,7.80
2018-04-19T10:25:27.347Z,7.10
2018-04-19T10:27:54.986Z,6.77
2018-04-19T10:30:22.444Z,7.17
2018-04-19T10:32:49.899Z,8.60
2018-04-19T10:35:17.386Z,6.90
2018-04-19T10:37:44.904Z,7.43
2018-04-19T10:40:12.352Z,7.47
2018-04-19T10:42:39.890Z,6.80
2018-04-19T10:45:07.457Z,7.30
2018-04-19T10:47:35.025Z,8.10
2018-04-19T10:50:02.518Z,7.97
2018-04-19T10:52:30.056Z,6.90
2018-04-19T10:54:57.557Z,7.70
2018-04-19T10:57:25.015Z,8.17
2018-04-19T10:59:52.588Z,5.57
2018-04-19T11:02:20.080Z,6.50
2018-04-19T11:04:47.587Z,7.10
2018-04-19T11:07:15.079Z,6.93
2018-04-19T11:09:42.544Z,7.10
2018-04-19T11:12:10.000Z,8.33
2018-04-19T11:14:37.471Z,7.80
2018-04-19T11:17:04.978Z,6.80
2018-04-19T11:19:32.440Z,8.37
2018-04-19T11:21:59.920Z,6.13
2018-04-19T11:24:27.394Z,6.90
2018-04-19T11:26:54.883Z,8.10
2018-04-19T11:29:22.416Z,8.53
2018-04-19T11:31:49.880Z,7.70
2018-04-19T11:34:17.433Z,7.37
2018-04-19T11:36:44.898Z,7.30
2018-04-19T11:39:12.406Z,7.60
2018-04-19T11:41:39.901Z,6.90
2018-04-19T11:44:07.355Z,6.87
2018-04-19T11:46:34.915Z,5.70
2018-04-19T11:49:02.413Z,5.60
2018-04-19T11:51:29.877Z,6.80
2018-04-19T11:53:57.444Z,7.33
2018-04-19T11:56:24.905Z,7.00
2018-04-19T11:58:52.417Z,6.13
2018-04-19T12:01:19.908Z,7.53
2018-04-19T12:03:47.402Z,7.60
2018-04-19T12:06:14.977Z,6.70
2018-04-19T12:08:42.495Z,5.60
2018-04-19T12:11:09.959Z,5.80
2018-04-19T12:13:37.577Z,6.40
2018-04-19T12:16:04.975Z,6.03
2018-04-19T12:18:32.453Z,7.40
2018-04-19T12:21:00.078Z,6.57
2018-04-19T12:23:27.544Z,6.70
2018-04-19T12:25:55.011Z,7.20
2018-04-19T12:28:22.488Z,7.20
2018-04-19T12:30:49.965Z,6.73
2018-04-19T12:33:17.520Z,5.90
2018-04-19T12:35:45.004Z,5.80
2018-04-19T12:38:12.488Z,9.40
2018-04-19T12:40:39.985Z,5.50
2018-04-19T12:43:07.567Z,4.90
2018-04-19T12:45:35.065Z,5.20
2018-04-19T12:48:02.581Z,4.00
2018-04-19T12:50:30.071Z,5.23
2018-04-19T12:52:57.577Z,4.30
2018-04-19T12:55:25.107Z,4.47
2018-04-19T12:57:52.597Z,4.63
2018-04-19T13:00:20.047Z,5.00
2018-04-19T13:02:47.536Z,4.90
2018-04-19T13:05:15.063Z,5.20
2018-04-19T13:07:42.581Z,3.83
2018-04-19T13:10:10.106Z,4.90
2018-04-19T13:12:37.589Z,4.50
2018-04-19T13:15:05.061Z,4.53
2018-04-19T13:17:32.683Z,3.80
2018-04-19T13:20:00.139Z,4.50
2018-04-19T13:22:27.595Z,3.83
2018-04-19T13:24:55.133Z,5.67
2018-04-19T13:27:22.622Z,3.90
2018-04-19T13:29:50.096Z,4.37
2018-04-19T13:32:17.572Z,3.30
2018-04-19T13:34:45.024Z,3.07
2018-04-19T13:37:12.490Z,2.67
2018-04-19T13:39:39.952Z,2.50
2018-04-19T13:42:07.448Z,2.63
2018-04-19T13:44:34.992Z,2.80
2018-04-19T13:47:02.443Z,2.00
2018-04-19T13:49:29.933Z,2.50
2018-04-19T13:51:57.403Z,2.57
2018-04-19T13:54:24.907Z,2.03
2018-04-19T13:56:52.402Z,2.90
2018-04-19T13:59:19.899Z,2.50
2018-04-19T14:01:47.373Z,2.07
2018-04-19T14:04:14.865Z,1.90
2018-04-19T14:06:42.448Z,3.50
2018-04-19T14:09:09.904Z,2.63
2018-04-19T14:11:37.400Z,2.87
2018-04-19T14:14:04.875Z,3.00
2018-04-19T14:16:32.355Z,2.90
2018-04-19T14:18:59.868Z,2.40
2018-04-19T14:21:27.478Z,2.40
2018-04-19T14:23:54.988Z,2.40
2018-04-19T14:26:22.518Z,3.13
2018-04-19T14:28:50.021Z,2.20
2018-04-19T14:31:17.516Z,2.30
2018-04-19T14:33:45.088Z,2.80
2018-04-19T14:36:12.628Z,2.13
2018-04-19T14:38:40.177Z,2.00
2018-04-19T14:41:07.666Z,2.43
2018-04-19T14:43:35.182Z,2.40
2018-04-19T14:46:02.636Z,2.30
2018-04-19T14:48:30.132Z,2.50
2018-04-19T14:50:57.654Z,2.60
2018-04-19T14:53:25.147Z,2.93
2018-04-19T14:55:52.673Z,2.20
2018-04-19T14:58:20.167Z,3.43
2018-04-19T15:00:47.773Z,3.50
2018-04-19T15:03:15.294Z,3.57
2018-04-19T15:05:42.759Z,4.90
2018-04-19T15:08:10.231Z,3.03
2018-04-19T15:10:37.679Z,3.20
2018-04-19T15:13:05.171Z,4.10
2018-04-19T15:15:32.645Z,4.13
2018-04-19T15:18:00.100Z,3.50
2018-04-19T15:20:27.595Z,3.20
2018-04-19T15:22:55.081Z,4.10
2018-04-19T15:25:22.761Z,3.10
2018-04-19T15:27:50.222Z,3.20
2018-04-19T15:30:17.696Z,2.90
2018-04-19T15:32:45.274Z,4.73
2018-04-19T15:35:12.827Z,4.30
2018-04-19T15:37:40.337Z,4.63
2018-04-19T15:40:07.954Z,3.40
2018-04-19T15:42:35.432Z,4.80
2018-04-19T15:45:02.917Z,4.00
2018-04-19T15:47:30.407Z,4.20
2018-04-19T15:49:57.874Z,6.77
2018-04-19T15:52:25.408Z,3.50
2018-04-19T15:54:52.883Z,5.80
2018-04-19T15:57:20.365Z,4.30
2018-04-19T15:59:47.846Z,4.07
2018-04-19T16:02:15.331Z,4.30
2018-04-19T16:04:42.813Z,5.23
2018-04-19T16:07:10.262Z,4.13
2018-04-19T16:09:37.860Z,4.20
2018-04-19T16:12:05.430Z,2.80
2018-04-19T16:14:32.949Z,4.47
2018-04-19T16:17:00.393Z,2.40
2018-04-19T16:19:27.877Z,2.83
2018-04-19T16:21:55.368Z,3.30
2018-04-19T16:24:22.893Z,3.50
2018-04-19T16:26:50.417Z,4.97
2018-04-19T16:29:18.031Z,3.87
2018-04-19T16:31:45.573Z,3.47
2018-04-19T16:34:13.114Z,3.07
2018-04-19T16:36:40.561Z,3.73
2018-04-19T16:39:08.071Z,3.47
2018-04-19T16:41:35.620Z,3.30
2018-04-19T16:44:03.095Z,43.47
2018-04-19T16:46:30.594Z,3.70
2018-04-19T16:48:58.063Z,4.50
2018-04-19T16:51:25.547Z,3.70
2018-04-19T16:53:53.020Z,4.33
2018-04-19T16:56:20.548Z,5.70
2018-04-19T16:58:48.007Z,5.63
2018-04-19T17:01:15.519Z,3.97
2018-04-19T17:03:43.016Z,3.60
2018-04-19T17:06:10.584Z,4.87
2018-04-19T17:08:38.036Z,3.60
2018-04-19T17:11:05.615Z,4.23
2018-04-19T17:13:33.078Z,4.73
2018-04-19T17:16:00.560Z,4.10
2018-04-19T17:18:28.070Z,4.80
2018-04-19T17:20:55.535Z,5.13
2018-04-19T17:23:23.023Z,4.57
2018-04-19T17:25:50.520Z,4.70
2018-04-19T17:28:17.996Z,4.37
2018-04-19T17:30:45.493Z,6.50
2018-04-19T17:33:13.028Z,4.70
2018-04-19T17:35:40.571Z,4.10
2018-04-19T17:38:08.034Z,6.30
2018-04-19T17:40:35.619Z,6.57
2018-04-19T17:43:03.104Z,4.80
2018-04-19T17:45:30.581Z,5.50
2018-04-19T17:47:58.143Z,7.57
2018-04-19T17:50:25.628Z,19.90
2018-04-19T17:52:53.112Z,14.40
2018-04-19T17:55:20.573Z,11.03
2018-04-19T17:57:48.066Z,6.20
2018-04-19T18:00:15.735Z,6.27
2018-04-19T18:02:43.239Z,7.20
2018-04-19T18:05:10.756Z,5.97
2018-04-19T18:07:38.211Z,6.17
2018-04-19T18:10:05.669Z,5.90
2018-04-19T18:12:33.127Z,7.57
2018-04-19T18:15:00.576Z,8.37
2018-04-19T18:17:28.086Z,9.83
2018-04-19T18:19:55.559Z,6.07
2018-04-19T18:22:23.104Z,5.77
2018-04-19T18:24:50.617Z,4.77
2018-04-19T18:27:18.103Z,5.63
2018-04-19T18:29:45.656Z,5.20
2018-04-19T18:32:13.180Z,5.80
2018-04-19T18:34:40.649Z,5.60
2018-04-19T18:37:08.155Z,5.23
2018-04-19T18:39:35.625Z,7.50
2018-04-19T18:42:03.117Z,5.93
2018-04-19T18:44:30.730Z,10.50
2018-04-19T18:46:58.215Z,10.80
2018-04-19T18:49:25.705Z,6.10
2018-04-19T18:51:53.167Z,11.63
2018-04-19T18:54:20.640Z,8.33
2018-04-19T18:56:48.177Z,14.17
2018-04-19T18:59:15.654Z,6.20
2018-04-19T19:01:43.178Z,5.20
2018-04-19T19:04:10.655Z,8.73
2018-04-19T19:06:38.187Z,16.13
2018-04-19T19:09:05.651Z,8.93
2018-04-19T19:11:33.371Z,5.20
2018-04-19T19:14:00.932Z,5.97
2018-04-19T19:16:28.479Z,4.27
2018-04-19T19:19:08.009Z,7.33
2018-04-19T19:21:35.603Z,7.77
2018-04-19T19:24:03.124Z,4.83
2018-04-19T19:26:30.818Z,5.97
2018-04-19T19:28:58.344Z,4.30
2018-04-19T19:31:25.836Z,6.10
2018-04-19T19:33:53.322Z,6.67
2018-04-19T19:36:20.805Z,5.93
2018-04-19T19:38:48.254Z,6.40
2018-04-19T19:41:15.764Z,8.27
2018-04-19T19:43:43.258Z,5.67
2018-04-19T19:46:10.758Z,5.97
2018-04-19T19:48:38.258Z,12.83
2018-04-19T19:51:05.772Z,22.23
2018-04-19T19:53:33.295Z,6.10
2018-04-19T19:56:00.764Z,4.50
2018-04-19T19:58:28.369Z,5.40
2018-04-19T20:00:55.934Z,5.33
2018-04-19T20:03:23.395Z,5.10
2018-04-19T20:05:50.959Z,5.30
2018-04-19T20:08:18.508Z,5.07
2018-04-19T20:10:45.953Z,5.83
2018-04-19T20:13:13.448Z,6.13
2018-04-19T20:15:40.924Z,6.20
2018-04-19T20:18:08.386Z,5.97
2018-04-19T20:20:35.832Z,5.90
2018-04-19T20:23:03.301Z,6.50
2018-04-19T20:25:30.795Z,6.63
2018-04-19T20:27:58.280Z,6.43
2018-04-19T20:30:25.768Z,7.70
2018-04-19T20:32:53.288Z,6.60
2018-04-19T20:35:20.793Z,9.20
2018-04-19T20:37:48.247Z,6.40
2018-04-19T20:40:15.730Z,7.20
2018-04-19T20:42:43.276Z,6.23
2018-04-19T20:45:10.732Z,6.17
2018-04-19T20:47:38.219Z,7.00
2018-04-19T20:50:05.796Z,5.13
2018-04-19T20:52:33.299Z,5.90
2018-04-19T20:55:00.756Z,5.50
2018-04-19T20:57:28.250Z,5.67
2018-04-19T20:59:55.784Z,4.37
2018-04-19T21:02:23.334Z,6.97
2018-04-19T21:04:50.792Z,6.77
2018-04-19T21:07:18.301Z,6.30
2018-04-19T21:09:45.804Z,6.07
2018-04-19T21:12:13.281Z,5.97
2018-04-19T21:14:40.776Z,5.20
2018-04-19T21:17:08.266Z,7.70
2018-04-19T21:19:35.764Z,5.50
2018-04-19T21:22:03.219Z,5.40
2018-04-19T21:24:30.666Z,5.60
2018-04-19T21:26:58.213Z,6.07
2018-04-19T21:29:25.650Z,6.30
2018-04-19T21:31:53.111Z,7.00
2018-04-19T21:34:20.573Z,6.63
2018-04-19T21:36:48.084Z,9.00
2018-04-19T21:39:15.527Z,6.37
2018-04-19T21:41:43.060Z,7.30
2018-04-19T21:44:10.567Z,7.70
2018-04-19T21:46:38.024Z,15.00
2018-04-19T21:49:05.530Z,11.73
2018-04-19T21:51:33.138Z,14.13
2018-04-19T21:54:00.649Z,8.80
2018-04-19T21:56:28.193Z,10.17
2018-04-19T21:58:55.639Z,10.23
2018-04-19T22:01:23.189Z,11.10
2018-04-19T22:03:50.698Z,10.60
2018-04-19T22:06:18.248Z,11.27
2018-04-19T22:08:45.723Z,10.10
2018-04-19T22:11:13.240Z,14.17
2018-04-19T22:13:40.735Z,10.13
2018-04-19T22:16:08.192Z,7.70
2018-04-19T22:18:35.695Z,5.83
2018-04-19T22:21:03.152Z,5.90
2018-04-19T22:23:30.600Z,6.27
2018-04-19T22:25:58.136Z,6.60
2018-04-19T22:28:25.703Z,7.00
2018-04-19T22:30:53.224Z,6.47
2018-04-19T22:33:20.709Z,6.90
2018-04-19T22:35:48.193Z,7.27
2018-04-19T22:38:15.712Z,7.50
2018-04-19T22:40:43.184Z,7.20
2018-04-19T22:43:10.636Z,7.57
2018-04-19T22:45:38.167Z,7.20
2018-04-19T22:48:05.645Z,6.97
2018-04-19T22:50:33.097Z,8.70
2018-04-19T22:53:00.618Z,7.80
2018-04-19T22:55:28.103Z,10.03
2018-04-19T22:57:55.703Z,11.23
2018-04-19T23:00:23.995Z,10.60
2018-04-19T23:02:51.514Z,10.50
2018-04-19T23:05:18.991Z,10.27
2018-04-19T23:07:46.492Z,9.97
2018-04-19T23:10:13.971Z,9.20
2018-04-19T23:12:41.453Z,8.23
2018-04-19T23:15:09.049Z,9.70
2018-04-19T23:17:36.559Z,14.23
2018-04-19T23:20:04.062Z,9.13
2018-04-19T23:22:34.446Z,13.17
2018-04-19T23:25:02.099Z,16.53
2018-04-19T23:27:29.589Z,9.17
2018-04-19T23:29:57.076Z,8.73
2018-04-19T23:32:24.584Z,9.30
2018-04-19T23:34:52.173Z,9.53
2018-04-19T23:37:19.674Z,10.23
2018-04-19T23:39:47.180Z,9.00
2018-04-19T23:42:14.745Z,10.47
2018-04-19T23:44:42.242Z,9.47
2018-04-19T23:47:09.756Z,8.67
2018-04-19T23:49:37.322Z,10.10
2018-04-19T23:52:04.813Z,8.97
2018-04-19T23:54:32.354Z,9.50
2018-04-19T23:56:59.853Z,9.40
2018-04-19T23:59:27.337Z,9.80
